Hafnia Sunda — 9V3281 — position and weather

sailwx.info

Track history (hours):
 
Tides and Currents Weather Stations Pressure Air Temp Water Temp Dewpoint Dewpoint Depression Visibility Wind Speed Wind Dir Waves Ship Positions

Hafnia Sunda

Last reported at 2018-Jun-21 21:59 UTC. Time now 2018-Jun-21 22:06 UTC.
Position N 60°02' E 028°27'.

Length 184 m; draft 6.8 m.

Type: Tanker. MMSI: 566579000.

Date/timePositionNaut miles runAvg speedWind from/ knotsBaromVisibWave heightAir tempDewpointWater temp
2018-Jun-21 21:59N 60°02' E 028°27'0 0.0
2018-Jun-21 21:27N 60°02' E 028°27'0 0.1
2018-Jun-21 20:57N 60°02' E 028°27'0 0.0
2018-Jun-21 20:27N 60°02' E 028°27'0 0.1
2018-Jun-21 19:57N 60°02' E 028°27'0 0.1
2018-Jun-21 19:30N 60°02' E 028°27'0 0.0
2018-Jun-21 19:00N 60°02' E 028°27'0 0.0
2018-Jun-21 18:28N 60°02' E 028°27'0 0.0
2018-Jun-21 18:00N 60°02' E 028°27'0 0.0
2018-Jun-21 17:30N 60°02' E 028°27'0 0.0
2018-Jun-21 17:00N 60°02' E 028°27'0 0.0
2018-Jun-21 16:30N 60°02' E 028°27'0 0.0
2018-Jun-21 16:00N 60°02' E 028°27'0 0.0
2018-Jun-21 15:30N 60°02' E 028°27'0 0.0
2018-Jun-21 15:00N 60°02' E 028°27'0 0.0
2018-Jun-21 14:30N 60°02' E 028°27'0 0.0
2018-Jun-21 13:58N 60°02' E 028°27'0 0.0
2018-Jun-21 13:28N 60°02' E 028°27'0 0.0
2018-Jun-21 13:00N 60°02' E 028°27'0 0.0
2018-Jun-21 12:28N 60°02' E 028°27'0 0.0
2018-Jun-21 11:57N 60°02' E 028°27'0 0.0
2018-Jun-21 11:24N 60°02' E 028°27'0 0.0
2018-Jun-21 10:54N 60°02' E 028°27'0 0.0
2018-Jun-21 10:24N 60°02' E 028°27'0 0.0
2018-Jun-21 09:54N 60°02' E 028°27'0 0.0
2018-Jun-21 09:21N 60°02' E 028°27'0 0.0
2018-Jun-21 08:51N 60°02' E 028°27'0 0.0
2018-Jun-21 08:27N 60°02' E 028°27'0 0.0
2018-Jun-21 08:00N 60°02' E 028°27'0 0.0
2018-Jun-21 07:27N 60°02' E 028°27'0 0.1
2018-Jun-21 06:57N 60°02' E 028°27'0 0.1
2018-Jun-21 06:30N 60°02' E 028°27'1 1.2
2018-Jun-21 06:01N 60°02' E 028°27'510.0
2018-Jun-21 05:30N 60°06' E 028°19'5 9.4
2018-Jun-21 05:00N 60°07' E 028°11'5 9.0
2018-Jun-21 04:30N 60°09' E 028°02'4 7.9
2018-Jun-21 04:00N 60°10' E 027°54'4 7.8
2018-Jun-21 03:30N 60°10' E 027°47'4 7.9
2018-Jun-21 03:00N 60°08' E 027°40'4 8.1
2018-Jun-21 02:30N 60°06' E 027°33'4 8.2
2018-Jun-21 02:00N 60°04' E 027°26'4 8.1
2018-Jun-21 01:30N 60°02' E 027°19'4 8.1
2018-Jun-21 01:00N 59°60' E 027°12'4 7.9
2018-Jun-21 00:30N 59°58' E 027°05'5 8.5
2018-Jun-20 23:57N 59°58' E 026°56'4 8.4
2018-Jun-20 23:30N 59°59' E 026°48'4 8.0
2018-Jun-20 23:00N 59°59' E 026°41'4 7.4
2018-Jun-20 22:30N 59°58' E 026°34'4 7.9
2018-Jun-20 22:00N 59°57' E 026°26'4 8.4
2018-Jun-20 21:31N 59°56' E 026°18'8 7.8
2018-Jun-20 20:28N 59°54' E 026°02'9 7.6
2018-Jun-20 19:18N 59°51' E 025°45'14 7.9
2018-Jun-20 17:35N 59°48' E 025°19'1 8.0
2018-Jun-20 17:29N 59°48' E 025°17'4 7.9
2018-Jun-20 17:00N 59°48' E 025°10'4 7.9
2018-Jun-20 16:30N 59°47' E 025°02'4 8.0
2018-Jun-20 16:00N 59°46' E 024°55'4 7.7
2018-Jun-20 15:30N 59°45' E 024°47'4 7.8
2018-Jun-20 15:00N 59°44' E 024°39'4 8.0
2018-Jun-20 14:30N 59°43' E 024°32'4 8.4
2018-Jun-20 14:00N 59°40' E 024°27'5 9.4
2018-Jun-20 13:30N 59°35' E 024°24'4 7.9
2018-Jun-20 12:59N 59°32' E 024°28'3 5.3
2018-Jun-20 12:30N 59°30' E 024°31'0 0.4
2018-Jun-20 11:58N 59°29' E 024°31'0 0.1
2018-Jun-20 11:27N 59°30' E 024°31'0 0.0
2018-Jun-20 10:57N 59°30' E 024°31'0 0.0
2018-Jun-20 10:30N 59°30' E 024°31'0 0.0
2018-Jun-20 10:00N 59°30' E 024°31'0 0.1
2018-Jun-20 09:25N 59°30' E 024°31'0 0.0
2018-Jun-20 08:51N 59°30' E 024°31'0 0.1
2018-Jun-20 08:29N 59°29' E 024°31'0 0.0
2018-Jun-20 07:58N 59°29' E 024°31'0 0.0
2018-Jun-20 07:28N 59°29' E 024°31'0 0.0
2018-Jun-20 06:58N 59°29' E 024°31'0 0.0
2018-Jun-20 06:27N 59°30' E 024°31'0 0.0
2018-Jun-20 06:00N 59°29' E 024°31'0 0.0
2018-Jun-20 05:28N 59°30' E 024°31'0 0.0
2018-Jun-20 04:58N 59°29' E 024°31'0 0.0
2018-Jun-20 04:27N 59°29' E 024°31'0 0.0
2018-Jun-20 03:58N 59°30' E 024°31'0 0.0
2018-Jun-20 03:27N 59°30' E 024°31'0 0.0
2018-Jun-20 03:00N 59°30' E 024°31'0 0.0
2018-Jun-20 02:29N 59°30' E 024°31'0 0.0
2018-Jun-20 01:58N 59°29' E 024°31'0 0.0
2018-Jun-20 01:28N 59°30' E 024°31'0 0.0
2018-Jun-20 00:59N 59°30' E 024°31'0 0.0
2018-Jun-20 00:27N 59°30' E 024°31'0 0.0
2018-Jun-19 23:58N 59°30' E 024°31'0 0.0
2018-Jun-19 23:30N 59°30' E 024°31'0 0.0
2018-Jun-19 23:00N 59°30' E 024°31'0 0.0
2018-Jun-19 22:30N 59°30' E 024°31'0 0.0
2018-Jun-19 22:00N 59°30' E 024°31'0 0.0
2018-Jun-19 21:27N 59°30' E 024°31'0 0.1
2018-Jun-19 20:57N 59°30' E 024°31'0 0.0
2018-Jun-19 20:28N 59°30' E 024°31'0 0.0
2018-Jun-19 19:59N 59°30' E 024°31'0 0.0
2018-Jun-19 19:30N 59°30' E 024°31'0 0.0
2018-Jun-19 19:00N 59°30' E 024°31'0 0.0
2018-Jun-19 18:30N 59°30' E 024°31'0 0.0
2018-Jun-19 18:00N 59°30' E 024°31'0 0.8
2018-Jun-19 17:30N 59°30' E 024°32'0 0.4
2018-Jun-19 16:59N 59°30' E 024°32'1 1.1
2018-Jun-19 16:30N 59°29' E 024°33'3 6.4
2018-Jun-19 16:00N 59°30' E 024°27'5 9.4
2018-Jun-19 15:30N 59°30' E 024°18'18 9.7
2018-Jun-19 13:36N 59°28' E 023°42'1 9.4
2018-Jun-19 13:27N 59°28' E 023°39'4 9.3
2018-Jun-19 13:00N 59°28' E 023°31'7 9.3
2018-Jun-19 12:16N 59°27' E 023°17'9 9.5
2018-Jun-19 11:20N 59°27' E 022°60'80 8.6
2018-Jun-19 01:58N 58°35' E 021°01'5 8.6
2018-Jun-19 01:25N 58°31' E 020°55'4 8.7
2018-Jun-19 01:00N 58°28' E 020°51'8 8.8
2018-Jun-19 00:08N 58°22' E 020°43'1 8.6
2018-Jun-19 00:00N 58°21' E 020°41'5 8.7
2018-Jun-18 23:26N 58°17' E 020°36'181 8.0
2018-Jun-18 00:55N 56°04' E 016°49'44 7.5
2018-Jun-17 19:00N 55°42' E 015°40'16 7.9
2018-Jun-17 17:03N 55°35' E 015°16'0 8.1
2018-Jun-17 16:59N 55°35' E 015°15'6 8.4
2018-Jun-17 16:16N 55°32' E 015°06'2 8.6
2018-Jun-17 16:00N 55°31' E 015°03'4 8.6
2018-Jun-17 15:30N 55°29' E 014°56'4 8.4
2018-Jun-17 15:01N 55°27' E 014°49'4 8.1
2018-Jun-17 14:30N 55°25' E 014°43'4 7.8
2018-Jun-17 14:00N 55°22' E 014°38'4 7.9
2018-Jun-17 13:30N 55°19' E 014°33'4 7.9
2018-Jun-17 13:01N 55°16' E 014°29'4 7.9
2018-Jun-17 12:30N 55°13' E 014°24'4 7.7
2018-Jun-17 12:00N 55°10' E 014°20'4 7.4
2018-Jun-17 11:31N 55°10' E 014°14'4 7.6
2018-Jun-17 10:59N 55°10' E 014°07'12 7.4
2018-Jun-17 09:22N 55°10' E 013°46'3 7.6
2018-Jun-17 09:00N 55°10' E 013°41'10 7.7
2018-Jun-17 07:38N 55°10' E 013°23'9 7.5
2018-Jun-17 06:26N 55°11' E 013°07'3 8.0
2018-Jun-17 06:00N 55°13' E 013°01'4 8.1
2018-Jun-17 05:30N 55°14' E 012°55'4 7.9
2018-Jun-17 05:00N 55°15' E 012°48'4 7.6
2018-Jun-17 04:30N 55°17' E 012°42'3 6.2
2018-Jun-17 04:00N 55°18' E 012°37'3 7.1
2018-Jun-17 03:30N 55°22' E 012°38'4 7.6
2018-Jun-17 03:01N 55°26' E 012°40'4 7.5
2018-Jun-17 02:30N 55°29' E 012°41'4 7.7
2018-Jun-17 02:01N 55°33' E 012°42'5 9.8
2018-Jun-17 01:30N 55°38' E 012°42'4 7.3
2018-Jun-17 01:00N 55°41' E 012°38'0 0.2
2018-Jun-17 00:29N 55°41' E 012°38'0 0.0
2018-Jun-16 23:59N 55°41' E 012°38'0 0.0
2018-Jun-16 23:26N 55°41' E 012°38'0 0.0
2018-Jun-16 22:59N 55°41' E 012°38'0 0.0
2018-Jun-16 22:29N 55°41' E 012°38'0 0.0
2018-Jun-16 21:59N 55°41' E 012°38'0 0.0
2018-Jun-16 21:23N 55°41' E 012°38'0 0.0
2018-Jun-16 20:59N 55°41' E 012°38'0 0.0
2018-Jun-16 20:29N 55°41' E 012°38'0 0.0
2018-Jun-16 19:56N 55°41' E 012°38'0 0.0
2018-Jun-16 19:29N 55°41' E 012°38'0 0.0
2018-Jun-16 18:59N 55°41' E 012°38'0 0.0
2018-Jun-16 18:29N 55°41' E 012°38'0 0.0
2018-Jun-16 17:59N 55°41' E 012°38'0 0.0
2018-Jun-16 17:29N 55°41' E 012°38'0 0.0
2018-Jun-16 16:59N 55°41' E 012°38'0 0.0
2018-Jun-16 16:29N 55°41' E 012°38'0 0.0
2018-Jun-16 15:56N 55°41' E 012°38'0 0.0
2018-Jun-16 15:20N 55°41' E 012°38'0 0.0
2018-Jun-16 14:44N 55°41' E 012°38'0 0.0
2018-Jun-16 14:29N 55°41' E 012°38'0 0.0
2018-Jun-16 13:56N 55°41' E 012°38'0 0.0
2018-Jun-16 13:23N 55°41' E 012°38'0 0.0
2018-Jun-16 12:53N 55°41' E 012°38'0 0.0
2018-Jun-16 12:17N 55°41' E 012°38'0 0.0
2018-Jun-16 11:50N 55°41' E 012°38'0 0.0
2018-Jun-16 11:29N 55°41' E 012°38'0 0.0
2018-Jun-16 10:53N 55°41' E 012°38'0 0.0
2018-Jun-16 10:29N 55°41' E 012°38'0 0.0
2018-Jun-16 09:56N 55°41' E 012°38'0 0.0
2018-Jun-16 09:29N 55°41' E 012°38'0 0.0
2018-Jun-16 08:59N 55°41' E 012°38'0 0.0
2018-Jun-16 08:20N 55°41' E 012°38'0 0.0
2018-Jun-16 07:53N 55°41' E 012°38'0 0.0
2018-Jun-16 07:29N 55°41' E 012°38'0 0.0
2018-Jun-16 06:56N 55°41' E 012°38'0 0.0
2018-Jun-16 06:29N 55°41' E 012°38'0 0.0
2018-Jun-16 05:56N 55°41' E 012°38'0 0.0
2018-Jun-16 05:29N 55°41' E 012°38'0 0.0
2018-Jun-16 04:44N 55°41' E 012°38'0 0.0
2018-Jun-16 04:26N 55°41' E 012°38'0 0.0
2018-Jun-16 03:56N 55°41' E 012°38'0 0.0
2018-Jun-16 03:26N 55°41' E 012°38'0 0.0
2018-Jun-16 02:59N 55°41' E 012°38'0 0.0
2018-Jun-16 02:29N 55°41' E 012°38'0 0.0
2018-Jun-16 01:56N 55°41' E 012°38'0 0.0
2018-Jun-16 01:29N 55°41' E 012°38'0 0.0
2018-Jun-16 00:59N 55°41' E 012°38'0 0.0
2018-Jun-16 00:29N 55°41' E 012°38'0 0.0
2018-Jun-15 23:56N 55°41' E 012°38'0 0.0
2018-Jun-15 23:30N 55°41' E 012°38'0 0.4
2018-Jun-15 23:00N 55°41' E 012°39'3 5.8
2018-Jun-15 22:30N 55°44' E 012°40'510.9
2018-Jun-15 22:00N 55°49' E 012°42'612.1
2018-Jun-15 21:30N 55°55' E 012°39'714.5
2018-Jun-15 21:00N 56°02' E 012°39'713.6
2018-Jun-15 20:30N 56°07' E 012°30'2 3.6
2018-Jun-15 20:00N 56°08' E 012°28'5 6.4
2018-Jun-15 19:16N 56°11' E 012°21'69 1.6
2018-Jun-13 23:19N 55°39' E 010°32'511.5
2018-Jun-13 22:53N 55°40' E 010°40'3110.7
2018-Jun-13 19:59N 55°13' E 011°06'611.1
2018-Jun-13 19:29N 55°09' E 010°60'511.6
2018-Jun-13 19:00N 55°03' E 010°60'510.8
2018-Jun-13 18:30N 54°58' E 010°57'510.1
2018-Jun-13 18:00N 54°54' E 010°52'510.9
2018-Jun-13 17:30N 54°49' E 010°50'610.9
2018-Jun-13 17:00N 54°44' E 010°47'510.0
2018-Jun-13 16:30N 54°39' E 010°50'510.6
2018-Jun-13 16:00N 54°37' E 010°59'510.2
2018-Jun-13 15:30N 54°36' E 011°07'5 9.9
2018-Jun-13 15:00N 54°35' E 011°15'510.7
2018-Jun-13 14:30N 54°32' E 011°24'611.3
2018-Jun-13 14:00N 54°30' E 011°33'510.8
2018-Jun-13 13:30N 54°28' E 011°41'611.1
2018-Jun-13 13:00N 54°27' E 011°50'612.5
2018-Jun-13 12:30N 54°26' E 012°01'611.5
2018-Jun-13 11:59N 54°27' E 012°11'7311.6
2018-Jun-13 05:45N 55°04' E 014°00'311.8
2018-Jun-13 05:29N 55°05' E 014°05'612.1
2018-Jun-13 04:59N 55°10' E 014°12'612.5
2018-Jun-13 04:30N 55°15' E 014°19'612.5
2018-Jun-13 04:00N 55°19' E 014°25'612.5
2018-Jun-13 03:30N 55°24' E 014°33'612.1
2018-Jun-13 03:00N 55°28' E 014°40'612.3
2018-Jun-13 02:30N 55°31' E 014°50'712.2
2018-Jun-13 01:58N 55°34' E 015°00'612.4
2018-Jun-13 01:28N 55°37' E 015°10'612.8
2018-Jun-13 01:00N 55°38' E 015°20'612.7
2018-Jun-13 00:30N 55°40' E 015°31'612.5
2018-Jun-13 00:00N 55°41' E 015°42'712.7
2018-Jun-12 23:25N 55°43' E 015°55'  
Track history (hours):
 
Tides and Currents Weather Stations Pressure Air Temp Water Temp Dewpoint Dewpoint Depression Visibility Wind Speed Wind Dir Waves Ship Positions

Hafnia Sunda

Last reported at 2018-Jun-21 21:59 UTC. Time now 2018-Jun-21 22:06 UTC.
Position N 60°02' E 028°27'.

Length 184 m; draft 6.8 m.

Type: Tanker. MMSI: 566579000.

Date/timePositionNaut miles runAvg speedWind from/ knotsBaromVisibWave heightAir tempDewpointWater temp
2018-Jun-21 21:59N 60°02' E 028°27'0 0.0
2018-Jun-21 21:27N 60°02' E 028°27'0 0.1
2018-Jun-21 20:57N 60°02' E 028°27'0 0.0
2018-Jun-21 20:27N 60°02' E 028°27'0 0.1
2018-Jun-21 19:57N 60°02' E 028°27'0 0.1
2018-Jun-21 19:30N 60°02' E 028°27'0 0.0
2018-Jun-21 19:00N 60°02' E 028°27'0 0.0
2018-Jun-21 18:28N 60°02' E 028°27'0 0.0
2018-Jun-21 18:00N 60°02' E 028°27'0 0.0
2018-Jun-21 17:30N 60°02' E 028°27'0 0.0
2018-Jun-21 17:00N 60°02' E 028°27'0 0.0
2018-Jun-21 16:30N 60°02' E 028°27'0 0.0
2018-Jun-21 16:00N 60°02' E 028°27'0 0.0
2018-Jun-21 15:30N 60°02' E 028°27'0 0.0
2018-Jun-21 15:00N 60°02' E 028°27'0 0.0
2018-Jun-21 14:30N 60°02' E 028°27'0 0.0
2018-Jun-21 13:58N 60°02' E 028°27'0 0.0
2018-Jun-21 13:28N 60°02' E 028°27'0 0.0
2018-Jun-21 13:00N 60°02' E 028°27'0 0.0
2018-Jun-21 12:28N 60°02' E 028°27'0 0.0
2018-Jun-21 11:57N 60°02' E 028°27'0 0.0
2018-Jun-21 11:24N 60°02' E 028°27'0 0.0
2018-Jun-21 10:54N 60°02' E 028°27'0 0.0
2018-Jun-21 10:24N 60°02' E 028°27'0 0.0
2018-Jun-21 09:54N 60°02' E 028°27'0 0.0
2018-Jun-21 09:21N 60°02' E 028°27'0 0.0
2018-Jun-21 08:51N 60°02' E 028°27'0 0.0
2018-Jun-21 08:27N 60°02' E 028°27'0 0.0
2018-Jun-21 08:00N 60°02' E 028°27'0 0.0
2018-Jun-21 07:27N 60°02' E 028°27'0 0.1
2018-Jun-21 06:57N 60°02' E 028°27'0 0.1
2018-Jun-21 06:30N 60°02' E 028°27'1 1.2
2018-Jun-21 06:01N 60°02' E 028°27'510.0
2018-Jun-21 05:30N 60°06' E 028°19'5 9.4
2018-Jun-21 05:00N 60°07' E 028°11'5 9.0
2018-Jun-21 04:30N 60°09' E 028°02'4 7.9
2018-Jun-21 04:00N 60°10' E 027°54'4 7.8
2018-Jun-21 03:30N 60°10' E 027°47'4 7.9
2018-Jun-21 03:00N 60°08' E 027°40'4 8.1
2018-Jun-21 02:30N 60°06' E 027°33'4 8.2
2018-Jun-21 02:00N 60°04' E 027°26'4 8.1
2018-Jun-21 01:30N 60°02' E 027°19'4 8.1
2018-Jun-21 01:00N 59°60' E 027°12'4 7.9
2018-Jun-21 00:30N 59°58' E 027°05'5 8.5
2018-Jun-20 23:57N 59°58' E 026°56'4 8.4
2018-Jun-20 23:30N 59°59' E 026°48'4 8.0
2018-Jun-20 23:00N 59°59' E 026°41'4 7.4
2018-Jun-20 22:30N 59°58' E 026°34'4 7.9
2018-Jun-20 22:00N 59°57' E 026°26'4 8.4
2018-Jun-20 21:31N 59°56' E 026°18'8 7.8
2018-Jun-20 20:28N 59°54' E 026°02'9 7.6
2018-Jun-20 19:18N 59°51' E 025°45'14 7.9
2018-Jun-20 17:35N 59°48' E 025°19'1 8.0
2018-Jun-20 17:29N 59°48' E 025°17'4 7.9
2018-Jun-20 17:00N 59°48' E 025°10'4 7.9
2018-Jun-20 16:30N 59°47' E 025°02'4 8.0
2018-Jun-20 16:00N 59°46' E 024°55'4 7.7
2018-Jun-20 15:30N 59°45' E 024°47'4 7.8
2018-Jun-20 15:00N 59°44' E 024°39'4 8.0
2018-Jun-20 14:30N 59°43' E 024°32'4 8.4
2018-Jun-20 14:00N 59°40' E 024°27'5 9.4
2018-Jun-20 13:30N 59°35' E 024°24'4 7.9
2018-Jun-20 12:59N 59°32' E 024°28'3 5.3
2018-Jun-20 12:30N 59°30' E 024°31'0 0.4
2018-Jun-20 11:58N 59°29' E 024°31'0 0.1
2018-Jun-20 11:27N 59°30' E 024°31'0 0.0
2018-Jun-20 10:57N 59°30' E 024°31'0 0.0
2018-Jun-20 10:30N 59°30' E 024°31'0 0.0
2018-Jun-20 10:00N 59°30' E 024°31'0 0.1
2018-Jun-20 09:25N 59°30' E 024°31'0 0.0
2018-Jun-20 08:51N 59°30' E 024°31'0 0.1
2018-Jun-20 08:29N 59°29' E 024°31'0 0.0
2018-Jun-20 07:58N 59°29' E 024°31'0 0.0
2018-Jun-20 07:28N 59°29' E 024°31'0 0.0
2018-Jun-20 06:58N 59°29' E 024°31'0 0.0
2018-Jun-20 06:27N 59°30' E 024°31'0 0.0
2018-Jun-20 06:00N 59°29' E 024°31'0 0.0
2018-Jun-20 05:28N 59°30' E 024°31'0 0.0
2018-Jun-20 04:58N 59°29' E 024°31'0 0.0
2018-Jun-20 04:27N 59°29' E 024°31'0 0.0
2018-Jun-20 03:58N 59°30' E 024°31'0 0.0
2018-Jun-20 03:27N 59°30' E 024°31'0 0.0
2018-Jun-20 03:00N 59°30' E 024°31'0 0.0
2018-Jun-20 02:29N 59°30' E 024°31'0 0.0
2018-Jun-20 01:58N 59°29' E 024°31'0 0.0
2018-Jun-20 01:28N 59°30' E 024°31'0 0.0
2018-Jun-20 00:59N 59°30' E 024°31'0 0.0
2018-Jun-20 00:27N 59°30' E 024°31'0 0.0
2018-Jun-19 23:58N 59°30' E 024°31'0 0.0
2018-Jun-19 23:30N 59°30' E 024°31'0 0.0
2018-Jun-19 23:00N 59°30' E 024°31'0 0.0
2018-Jun-19 22:30N 59°30' E 024°31'0 0.0
2018-Jun-19 22:00N 59°30' E 024°31'0 0.0
2018-Jun-19 21:27N 59°30' E 024°31'0 0.1
2018-Jun-19 20:57N 59°30' E 024°31'0 0.0
2018-Jun-19 20:28N 59°30' E 024°31'0 0.0
2018-Jun-19 19:59N 59°30' E 024°31'0 0.0
2018-Jun-19 19:30N 59°30' E 024°31'0 0.0
2018-Jun-19 19:00N 59°30' E 024°31'0 0.0
2018-Jun-19 18:30N 59°30' E 024°31'0 0.0
2018-Jun-19 18:00N 59°30' E 024°31'0 0.8
2018-Jun-19 17:30N 59°30' E 024°32'0 0.4
2018-Jun-19 16:59N 59°30' E 024°32'1 1.1
2018-Jun-19 16:30N 59°29' E 024°33'3 6.4
2018-Jun-19 16:00N 59°30' E 024°27'5 9.4
2018-Jun-19 15:30N 59°30' E 024°18'18 9.7
2018-Jun-19 13:36N 59°28' E 023°42'1 9.4
2018-Jun-19 13:27N 59°28' E 023°39'4 9.3
2018-Jun-19 13:00N 59°28' E 023°31'7 9.3
2018-Jun-19 12:16N 59°27' E 023°17'9 9.5
2018-Jun-19 11:20N 59°27' E 022°60'80 8.6
2018-Jun-19 01:58N 58°35' E 021°01'5 8.6
2018-Jun-19 01:25N 58°31' E 020°55'4 8.7
2018-Jun-19 01:00N 58°28' E 020°51'8 8.8
2018-Jun-19 00:08N 58°22' E 020°43'1 8.6
2018-Jun-19 00:00N 58°21' E 020°41'5 8.7
2018-Jun-18 23:26N 58°17' E 020°36'181 8.0
2018-Jun-18 00:55N 56°04' E 016°49'44 7.5
2018-Jun-17 19:00N 55°42' E 015°40'16 7.9
2018-Jun-17 17:03N 55°35' E 015°16'0 8.1
2018-Jun-17 16:59N 55°35' E 015°15'6 8.4
2018-Jun-17 16:16N 55°32' E 015°06'2 8.6
2018-Jun-17 16:00N 55°31' E 015°03'4 8.6
2018-Jun-17 15:30N 55°29' E 014°56'4 8.4
2018-Jun-17 15:01N 55°27' E 014°49'4 8.1
2018-Jun-17 14:30N 55°25' E 014°43'4 7.8
2018-Jun-17 14:00N 55°22' E 014°38'4 7.9
2018-Jun-17 13:30N 55°19' E 014°33'4 7.9
2018-Jun-17 13:01N 55°16' E 014°29'4 7.9
2018-Jun-17 12:30N 55°13' E 014°24'4 7.7
2018-Jun-17 12:00N 55°10' E 014°20'4 7.4
2018-Jun-17 11:31N 55°10' E 014°14'4 7.6
2018-Jun-17 10:59N 55°10' E 014°07'12 7.4
2018-Jun-17 09:22N 55°10' E 013°46'3 7.6
2018-Jun-17 09:00N 55°10' E 013°41'10 7.7
2018-Jun-17 07:38N 55°10' E 013°23'9 7.5
2018-Jun-17 06:26N 55°11' E 013°07'3 8.0
2018-Jun-17 06:00N 55°13' E 013°01'4 8.1
2018-Jun-17 05:30N 55°14' E 012°55'4 7.9
2018-Jun-17 05:00N 55°15' E 012°48'4 7.6
2018-Jun-17 04:30N 55°17' E 012°42'3 6.2
2018-Jun-17 04:00N 55°18' E 012°37'3 7.1
2018-Jun-17 03:30N 55°22' E 012°38'4 7.6
2018-Jun-17 03:01N 55°26' E 012°40'4 7.5
2018-Jun-17 02:30N 55°29' E 012°41'4 7.7
2018-Jun-17 02:01N 55°33' E 012°42'5 9.8
2018-Jun-17 01:30N 55°38' E 012°42'4 7.3
2018-Jun-17 01:00N 55°41' E 012°38'0 0.2
2018-Jun-17 00:29N 55°41' E 012°38'0 0.0
2018-Jun-16 23:59N 55°41' E 012°38'0 0.0
2018-Jun-16 23:26N 55°41' E 012°38'0 0.0
2018-Jun-16 22:59N 55°41' E 012°38'0 0.0
2018-Jun-16 22:29N 55°41' E 012°38'0 0.0
2018-Jun-16 21:59N 55°41' E 012°38'0 0.0
2018-Jun-16 21:23N 55°41' E 012°38'0 0.0
2018-Jun-16 20:59N 55°41' E 012°38'0 0.0
2018-Jun-16 20:29N 55°41' E 012°38'0 0.0
2018-Jun-16 19:56N 55°41' E 012°38'0 0.0
2018-Jun-16 19:29N 55°41' E 012°38'0 0.0
2018-Jun-16 18:59N 55°41' E 012°38'0 0.0
2018-Jun-16 18:29N 55°41' E 012°38'0 0.0
2018-Jun-16 17:59N 55°41' E 012°38'0 0.0
2018-Jun-16 17:29N 55°41' E 012°38'0 0.0
2018-Jun-16 16:59N 55°41' E 012°38'0 0.0
2018-Jun-16 16:29N 55°41' E 012°38'0 0.0
2018-Jun-16 15:56N 55°41' E 012°38'0 0.0
2018-Jun-16 15:20N 55°41' E 012°38'0 0.0
2018-Jun-16 14:44N 55°41' E 012°38'0 0.0
2018-Jun-16 14:29N 55°41' E 012°38'0 0.0
2018-Jun-16 13:56N 55°41' E 012°38'0 0.0
2018-Jun-16 13:23N 55°41' E 012°38'0 0.0
2018-Jun-16 12:53N 55°41' E 012°38'0 0.0
2018-Jun-16 12:17N 55°41' E 012°38'0 0.0
2018-Jun-16 11:50N 55°41' E 012°38'0 0.0
2018-Jun-16 11:29N 55°41' E 012°38'0 0.0
2018-Jun-16 10:53N 55°41' E 012°38'0 0.0
2018-Jun-16 10:29N 55°41' E 012°38'0 0.0
2018-Jun-16 09:56N 55°41' E 012°38'0 0.0
2018-Jun-16 09:29N 55°41' E 012°38'0 0.0
2018-Jun-16 08:59N 55°41' E 012°38'0 0.0
2018-Jun-16 08:20N 55°41' E 012°38'0 0.0
2018-Jun-16 07:53N 55°41' E 012°38'0 0.0
2018-Jun-16 07:29N 55°41' E 012°38'0 0.0
2018-Jun-16 06:56N 55°41' E 012°38'0 0.0
2018-Jun-16 06:29N 55°41' E 012°38'0 0.0
2018-Jun-16 05:56N 55°41' E 012°38'0 0.0
2018-Jun-16 05:29N 55°41' E 012°38'0 0.0
2018-Jun-16 04:44N 55°41' E 012°38'0 0.0
2018-Jun-16 04:26N 55°41' E 012°38'0 0.0
2018-Jun-16 03:56N 55°41' E 012°38'0 0.0
2018-Jun-16 03:26N 55°41' E 012°38'0 0.0
2018-Jun-16 02:59N 55°41' E 012°38'0 0.0
2018-Jun-16 02:29N 55°41' E 012°38'0 0.0
2018-Jun-16 01:56N 55°41' E 012°38'0 0.0
2018-Jun-16 01:29N 55°41' E 012°38'0 0.0
2018-Jun-16 00:59N 55°41' E 012°38'0 0.0
2018-Jun-16 00:29N 55°41' E 012°38'0 0.0
2018-Jun-15 23:56N 55°41' E 012°38'0 0.0
2018-Jun-15 23:30N 55°41' E 012°38'0 0.4
2018-Jun-15 23:00N 55°41' E 012°39'3 5.8
2018-Jun-15 22:30N 55°44' E 012°40'510.9
2018-Jun-15 22:00N 55°49' E 012°42'612.1
2018-Jun-15 21:30N 55°55' E 012°39'714.5
2018-Jun-15 21:00N 56°02' E 012°39'713.6
2018-Jun-15 20:30N 56°07' E 012°30'2 3.6
2018-Jun-15 20:00N 56°08' E 012°28'5 6.4
2018-Jun-15 19:16N 56°11' E 012°21'69 1.6
2018-Jun-13 23:19N 55°39' E 010°32'511.5
2018-Jun-13 22:53N 55°40' E 010°40'3110.7
2018-Jun-13 19:59N 55°13' E 011°06'611.1
2018-Jun-13 19:29N 55°09' E 010°60'511.6
2018-Jun-13 19:00N 55°03' E 010°60'510.8
2018-Jun-13 18:30N 54°58' E 010°57'510.1
2018-Jun-13 18:00N 54°54' E 010°52'510.9
2018-Jun-13 17:30N 54°49' E 010°50'610.9
2018-Jun-13 17:00N 54°44' E 010°47'510.0
2018-Jun-13 16:30N 54°39' E 010°50'510.6
2018-Jun-13 16:00N 54°37' E 010°59'510.2
2018-Jun-13 15:30N 54°36' E 011°07'5 9.9
2018-Jun-13 15:00N 54°35' E 011°15'510.7
2018-Jun-13 14:30N 54°32' E 011°24'611.3
2018-Jun-13 14:00N 54°30' E 011°33'510.8
2018-Jun-13 13:30N 54°28' E 011°41'611.1
2018-Jun-13 13:00N 54°27' E 011°50'612.5
2018-Jun-13 12:30N 54°26' E 012°01'611.5
2018-Jun-13 11:59N 54°27' E 012°11'7311.6
2018-Jun-13 05:45N 55°04' E 014°00'311.8
2018-Jun-13 05:29N 55°05' E 014°05'612.1
2018-Jun-13 04:59N 55°10' E 014°12'612.5
2018-Jun-13 04:30N 55°15' E 014°19'612.5
2018-Jun-13 04:00N 55°19' E 014°25'612.5
2018-Jun-13 03:30N 55°24' E 014°33'612.1
2018-Jun-13 03:00N 55°28' E 014°40'612.3
2018-Jun-13 02:30N 55°31' E 014°50'712.2
2018-Jun-13 01:58N 55°34' E 015°00'612.4
2018-Jun-13 01:28N 55°37' E 015°10'612.8
2018-Jun-13 01:00N 55°38' E 015°20'612.7
2018-Jun-13 00:30N 55°40' E 015°31'612.5
2018-Jun-13 00:00N 55°41' E 015°42'712.7
2018-Jun-12 23:25N 55°43' E 015°55'  

Dump ship's entire track history